createdAt,value
2018-10-07T00:03:27.344Z,58.86
2018-10-07T00:08:20.116Z,59.15
2018-10-07T00:13:12.776Z,59.15
2018-10-07T00:18:05.614Z,59.79
2018-10-07T00:22:58.274Z,59.33
2018-10-07T00:27:50.898Z,60.08
2018-10-07T00:32:43.601Z,60.11
2018-10-07T00:37:36.391Z,59.74
2018-10-07T00:42:29.091Z,60.64
2018-10-07T00:47:21.789Z,61.01
2018-10-07T00:52:14.437Z,60.72
2018-10-07T00:57:07.111Z,61.03
2018-10-07T01:01:59.880Z,61.06
2018-10-07T01:06:52.707Z,61.70
2018-10-07T01:11:45.499Z,62.05
2018-10-07T01:16:38.166Z,61.96
2018-10-07T01:21:30.871Z,61.96
2018-10-07T01:26:23.515Z,62.79
2018-10-07T01:31:16.173Z,62.28
2018-10-07T01:36:08.756Z,62.15
2018-10-07T01:41:01.472Z,63.00
2018-10-07T01:45:54.160Z,63.23
2018-10-07T01:50:46.910Z,63.29
2018-10-07T01:55:39.689Z,63.29
2018-10-07T02:00:32.332Z,63.75
2018-10-07T02:05:25.239Z,63.84
2018-10-07T02:10:17.966Z,63.48
2018-10-07T02:15:10.747Z,64.19
2018-10-07T02:20:03.616Z,64.09
2018-10-07T02:24:56.290Z,64.23
2018-10-07T02:29:49.034Z,64.38
2018-10-07T02:34:41.704Z,65.37
2018-10-07T02:39:34.478Z,65.34
2018-10-07T02:44:27.205Z,65.04
2018-10-07T02:49:20.019Z,66.24
2018-10-07T02:54:12.740Z,65.57
2018-10-07T02:59:06.520Z,65.90
2018-10-07T03:03:59.183Z,65.67
2018-10-07T03:08:51.987Z,66.04
2018-10-07T03:13:44.710Z,66.10
2018-10-07T03:18:37.371Z,66.49
2018-10-07T03:23:30.026Z,65.92
2018-10-07T03:28:22.721Z,66.74
2018-10-07T03:33:15.379Z,66.74
2018-10-07T03:38:08.022Z,66.56
2018-10-07T03:43:00.746Z,66.66
2018-10-07T03:47:53.410Z,66.63
2018-10-07T03:52:46.067Z,67.29
2018-10-07T03:57:38.702Z,67.40
2018-10-07T04:02:31.453Z,66.96
2018-10-07T04:07:24.098Z,67.16
2018-10-07T04:12:16.783Z,67.09
2018-10-07T04:17:09.486Z,67.74
2018-10-07T04:22:02.171Z,68.02
2018-10-07T04:26:54.953Z,67.54
2018-10-07T04:31:47.921Z,67.64
2018-10-07T04:36:40.890Z,68.08
2018-10-07T04:41:33.573Z,68.12
2018-10-07T04:46:26.372Z,68.54
2018-10-07T04:51:19.078Z,68.52
2018-10-07T04:56:11.822Z,68.27
2018-10-07T05:01:04.578Z,68.89
2018-10-07T05:05:57.502Z,69.25
2018-10-07T05:10:52.396Z,68.66
2018-10-07T05:15:47.759Z,68.67
2018-10-07T05:20:40.648Z,68.73
2018-10-07T05:25:33.512Z,69.23
2018-10-07T05:30:26.178Z,69.24
2018-10-07T05:35:18.852Z,70.00
2018-10-07T05:40:11.481Z,70.07
2018-10-07T05:45:04.516Z,70.29
2018-10-07T05:49:57.294Z,70.47
2018-10-07T05:54:50.005Z,70.46
2018-10-07T05:59:42.693Z,70.36
2018-10-07T06:04:45.939Z,70.25
2018-10-07T06:09:38.752Z,70.70
2018-10-07T06:14:48.922Z,70.18
2018-10-07T06:19:41.605Z,70.32
2018-10-07T06:24:35.075Z,70.17
2018-10-07T06:29:27.827Z,70.57
2018-10-07T06:34:20.545Z,71.14
2018-10-07T06:39:13.346Z,71.00
2018-10-07T06:44:06.073Z,70.98
2018-10-07T06:48:58.824Z,71.05
2018-10-07T06:53:51.486Z,71.47
2018-10-07T06:58:44.166Z,71.86
2018-10-07T07:03:36.940Z,71.73
2018-10-07T07:08:29.646Z,71.62
2018-10-07T07:13:22.364Z,71.30
2018-10-07T07:18:15.050Z,71.17
2018-10-07T07:23:07.749Z,71.48
2018-10-07T07:28:00.446Z,71.06
2018-10-07T07:32:53.111Z,70.61
2018-10-07T07:37:45.813Z,70.62
2018-10-07T07:42:38.440Z,71.01
2018-10-07T07:47:31.195Z,69.85
2018-10-07T07:52:23.974Z,69.25
2018-10-07T07:57:16.621Z,68.80
2018-10-07T08:02:09.425Z,68.64
2018-10-07T08:07:02.144Z,67.86
2018-10-07T08:11:54.827Z,67.91
2018-10-07T08:16:47.486Z,67.33
2018-10-07T08:21:40.195Z,67.22
2018-10-07T08:26:32.898Z,67.08
2018-10-07T08:31:25.549Z,67.21
2018-10-07T08:36:18.327Z,66.67
2018-10-07T08:41:11.083Z,66.66
2018-10-07T08:46:03.799Z,66.59
2018-10-07T08:50:56.423Z,66.13
2018-10-07T08:55:49.123Z,65.57
2018-10-07T09:00:41.830Z,64.25
2018-10-07T09:05:34.546Z,64.79
2018-10-07T09:10:27.178Z,63.78
2018-10-07T09:15:19.834Z,63.97
2018-10-07T09:20:12.599Z,63.11
2018-10-07T09:25:05.263Z,62.98
2018-10-07T09:29:57.891Z,62.89
2018-10-07T09:34:50.586Z,62.36
2018-10-07T09:39:43.320Z,61.45
2018-10-07T09:44:35.865Z,61.58
2018-10-07T09:49:28.603Z,61.09
2018-10-07T09:54:21.254Z,61.19
2018-10-07T09:59:13.981Z,60.53
2018-10-07T10:04:06.832Z,59.99
2018-10-07T10:08:59.558Z,60.19
2018-10-07T10:13:52.222Z,59.41
2018-10-07T10:18:50.110Z,59.61
2018-10-07T10:26:07.701Z,59.52
2018-10-07T10:31:07.788Z,58.99
2018-10-07T10:37:12.278Z,58.76
2018-10-07T10:42:14.006Z,58.39
2018-10-07T10:47:15.596Z,58.49
2018-10-07T10:52:21.338Z,58.98
2018-10-07T10:57:24.347Z,58.66
2018-10-07T11:02:29.575Z,58.85
2018-10-07T11:08:36.059Z,58.51
2018-10-07T11:14:13.143Z,58.12
2018-10-07T11:20:22.619Z,58.29
2018-10-07T11:26:36.283Z,58.14
2018-10-07T11:32:45.813Z,57.39
2018-10-07T11:37:57.864Z,57.65
2018-10-07T11:42:58.139Z,56.83
2018-10-07T11:48:06.318Z,56.93
2018-10-07T11:53:20.770Z,57.01
2018-10-07T11:58:13.442Z,56.54
2018-10-07T12:03:06.233Z,55.89
2018-10-07T12:07:58.863Z,55.79
2018-10-07T12:12:51.524Z,56.19
2018-10-07T12:17:44.211Z,55.95
2018-10-07T12:22:36.933Z,55.96
2018-10-07T12:27:29.710Z,55.79
2018-10-07T12:32:22.371Z,55.67
2018-10-07T12:37:14.997Z,55.61
2018-10-07T12:42:07.648Z,55.89
2018-10-07T12:47:00.299Z,55.87
2018-10-07T12:51:53.100Z,55.13
2018-10-07T12:56:45.747Z,54.17
2018-10-07T13:01:38.410Z,54.28
2018-10-07T13:06:31.116Z,52.88
2018-10-07T13:11:24.695Z,52.43
2018-10-07T13:16:17.533Z,51.71
2018-10-07T13:21:10.198Z,50.71
2018-10-07T13:26:02.850Z,50.83
2018-10-07T13:30:55.482Z,50.63
2018-10-07T13:35:48.060Z,49.80
2018-10-07T13:40:40.656Z,50.20
2018-10-07T13:45:33.261Z,49.90
2018-10-07T13:50:25.938Z,50.19
2018-10-07T13:55:18.701Z,49.49
2018-10-07T14:00:11.491Z,50.09
2018-10-07T14:05:04.238Z,49.34
2018-10-07T14:09:56.915Z,48.92
2018-10-07T14:14:49.769Z,48.99
2018-10-07T14:19:42.374Z,49.25
2018-10-07T14:24:35.010Z,49.51
2018-10-07T14:29:27.663Z,49.32
2018-10-07T14:34:20.267Z,48.53
2018-10-07T14:39:13.409Z,49.04
2018-10-07T14:44:06.275Z,48.97
2018-10-07T14:48:59.040Z,49.57
2018-10-07T14:53:51.757Z,49.72
2018-10-07T14:58:44.417Z,49.04
2018-10-07T15:03:37.122Z,49.41
2018-10-07T15:08:29.767Z,49.64
2018-10-07T15:13:22.518Z,49.53
2018-10-07T15:18:15.132Z,50.19
2018-10-07T15:23:07.762Z,50.59
2018-10-07T15:28:00.462Z,50.25
2018-10-07T15:32:53.984Z,50.30
2018-10-07T15:37:46.747Z,50.63
2018-10-07T15:42:39.421Z,50.25
2018-10-07T15:47:32.249Z,50.47
2018-10-07T15:52:25.007Z,50.98
2018-10-07T15:57:17.723Z,51.14
2018-10-07T16:02:10.841Z,51.20
2018-10-07T16:07:04.152Z,52.10
2018-10-07T16:11:56.873Z,51.88
2018-10-07T16:16:49.596Z,52.15
2018-10-07T16:21:42.232Z,52.65
2018-10-07T16:26:35.158Z,52.02
2018-10-07T16:31:27.905Z,52.34
2018-10-07T16:36:20.530Z,52.27
2018-10-07T16:41:13.153Z,52.39
2018-10-07T16:46:06.340Z,52.18
2018-10-07T16:50:59.195Z,52.46
2018-10-07T16:55:51.821Z,52.86
2018-10-07T17:00:44.519Z,53.45
2018-10-07T17:05:37.242Z,52.92
2018-10-07T17:10:29.888Z,53.31
2018-10-07T17:15:22.745Z,53.54
2018-10-07T17:20:15.387Z,53.91
2018-10-07T17:25:08.063Z,53.77
2018-10-07T17:30:00.671Z,54.14
2018-10-07T17:34:53.532Z,53.87
2018-10-07T17:39:46.236Z,54.21
2018-10-07T17:44:38.795Z,54.24
2018-10-07T17:49:31.418Z,54.37
2018-10-07T17:54:24.056Z,53.85
2018-10-07T17:59:16.816Z,54.49
2018-10-07T18:04:09.546Z,55.31
2018-10-07T18:09:02.261Z,54.67
2018-10-07T18:13:54.923Z,54.46
2018-10-07T18:18:47.571Z,55.22
2018-10-07T18:23:40.362Z,55.32
2018-10-07T18:28:33.120Z,55.65
2018-10-07T18:33:25.818Z,55.27
2018-10-07T18:38:18.597Z,55.03
2018-10-07T18:43:11.480Z,55.91
2018-10-07T18:48:04.102Z,55.59
2018-10-07T18:52:56.840Z,56.43
2018-10-07T18:57:49.659Z,56.20
2018-10-07T19:02:42.328Z,56.07
2018-10-07T19:07:35.014Z,56.66
2018-10-07T19:12:27.726Z,56.74
2018-10-07T19:17:20.699Z,57.21
2018-10-07T19:22:13.418Z,56.92
2018-10-07T19:27:06.202Z,57.45
2018-10-07T19:31:58.874Z,57.61
2018-10-07T19:36:51.808Z,58.06
2018-10-07T19:41:44.394Z,58.24
2018-10-07T19:46:37.275Z,58.21
2018-10-07T19:51:29.937Z,58.45
2018-10-07T19:56:22.714Z,58.70
2018-10-07T20:01:15.381Z,58.74
2018-10-07T20:06:08.043Z,58.62
2018-10-07T20:11:00.745Z,58.85
2018-10-07T20:15:53.390Z,59.28
2018-10-07T20:20:45.996Z,59.82
2018-10-07T20:25:38.622Z,60.04
2018-10-07T20:30:31.280Z,60.16
2018-10-07T20:35:24.035Z,60.20
2018-10-07T20:40:16.750Z,60.02
2018-10-07T20:45:09.462Z,60.36
2018-10-07T20:50:02.143Z,60.73
2018-10-07T20:54:54.783Z,60.83
2018-10-07T20:59:47.478Z,61.21
2018-10-07T21:04:40.154Z,62.03
2018-10-07T21:09:32.807Z,61.86
2018-10-07T21:14:25.644Z,62.47
2018-10-07T21:19:18.265Z,62.33
2018-10-07T21:24:10.965Z,62.34
2018-10-07T21:29:03.607Z,62.44
2018-10-07T21:33:56.226Z,62.34
2018-10-07T21:38:48.973Z,62.94
2018-10-07T21:43:41.666Z,63.21
2018-10-07T21:48:34.276Z,63.03
2018-10-07T21:53:26.967Z,63.21
2018-10-07T21:58:19.655Z,63.23
2018-10-07T22:03:12.293Z,63.17
2018-10-07T22:08:04.983Z,63.44
2018-10-07T22:12:57.582Z,63.63
2018-10-07T22:17:50.158Z,63.69
2018-10-07T22:22:42.919Z,64.20
2018-10-07T22:27:35.779Z,63.99
2018-10-07T22:32:28.464Z,64.24
2018-10-07T22:37:21.470Z,64.24
2018-10-07T22:42:14.138Z,64.11
2018-10-07T22:47:06.938Z,64.32
2018-10-07T22:51:59.562Z,64.70
2018-10-07T22:56:52.283Z,64.68
2018-10-07T23:01:45.024Z,65.13
2018-10-07T23:06:37.693Z,65.10
2018-10-07T23:11:30.455Z,65.08
2018-10-07T23:16:23.147Z,65.30
2018-10-07T23:21:15.799Z,64.90
2018-10-07T23:26:08.495Z,65.50
2018-10-07T23:31:01.223Z,65.75
2018-10-07T23:35:53.925Z,65.78
2018-10-07T23:40:48.091Z,66.17
2018-10-07T23:45:40.830Z,66.37
2018-10-07T23:50:33.479Z,66.43
2018-10-07T23:55:26.118Z,66.74
